createdAt,value
2023-07-19T00:02:23.112Z,97331.41
2023-07-19T00:04:50.884Z,97318.31
2023-07-19T00:10:59.134Z,97284.25
2023-07-19T00:13:26.983Z,97294.59
2023-07-19T00:15:56.181Z,97306.00
2023-07-19T00:18:24.193Z,97296.22
2023-07-19T00:20:52.259Z,97308.19
2023-07-19T00:23:19.991Z,97302.16
2023-07-19T00:25:47.720Z,97296.38
2023-07-19T00:28:15.423Z,97290.56
2023-07-19T00:30:43.615Z,97290.88
2023-07-19T00:33:12.627Z,97289.06
2023-07-19T00:35:42.756Z,97292.28
2023-07-19T00:38:10.436Z,97279.44
2023-07-19T00:40:38.111Z,97286.44
2023-07-19T00:43:10.231Z,97290.00
2023-07-19T00:45:42.446Z,97283.63
2023-07-19T00:48:10.196Z,97286.91
2023-07-19T00:50:39.578Z,97288.75
2023-07-19T00:53:07.489Z,97279.91
2023-07-19T00:55:35.357Z,97284.78
2023-07-19T00:58:03.118Z,97263.22
2023-07-19T01:00:31.810Z,97276.09
2023-07-19T01:02:59.944Z,97272.75
2023-07-19T01:05:28.079Z,97280.47
2023-07-19T01:07:59.685Z,97276.84
2023-07-19T01:10:27.800Z,97280.28
2023-07-19T01:13:05.704Z,97272.06
2023-07-19T01:15:33.439Z,97273.28
2023-07-19T01:18:01.228Z,97255.91
2023-07-19T01:20:29.534Z,97267.28
2023-07-19T01:22:59.387Z,97262.34
2023-07-19T01:25:27.550Z,97259.38
2023-07-19T01:27:55.310Z,97257.44
2023-07-19T01:30:23.004Z,97266.81
2023-07-19T01:32:50.948Z,97276.63
2023-07-19T01:35:18.926Z,97276.09
2023-07-19T01:37:47.732Z,97280.44
2023-07-19T01:40:16.808Z,97269.81
2023-07-19T01:42:44.559Z,97264.34
2023-07-19T01:45:12.415Z,97261.22
2023-07-19T01:47:40.293Z,97258.69
2023-07-19T01:50:08.612Z,97262.97
2023-07-19T01:52:36.363Z,97263.63
2023-07-19T01:55:04.337Z,97252.50
2023-07-19T01:57:33.410Z,97253.84
2023-07-19T02:00:01.267Z,97257.66
2023-07-19T02:02:29.186Z,97263.31
2023-07-19T02:04:57.332Z,97263.47
2023-07-19T02:07:25.168Z,97274.53
2023-07-19T02:09:53.014Z,97261.34
2023-07-19T02:12:20.715Z,97251.53
2023-07-19T02:14:49.846Z,97268.41
2023-07-19T02:17:17.579Z,97262.78
2023-07-19T02:19:45.352Z,97274.78
2023-07-19T02:22:13.344Z,97271.25
2023-07-19T02:24:41.071Z,97277.53
2023-07-19T02:27:08.813Z,97270.81
2023-07-19T02:29:36.565Z,97263.09
2023-07-19T02:32:06.319Z,97275.78
2023-07-19T02:34:34.048Z,97274.19
2023-07-19T02:37:01.769Z,97279.31
2023-07-19T02:39:31.197Z,97274.72
2023-07-19T02:41:59.042Z,97283.78
2023-07-19T02:44:26.749Z,97287.31
2023-07-19T02:46:54.491Z,97280.81
2023-07-19T02:49:25.051Z,97279.13
2023-07-19T02:51:52.738Z,97273.41
2023-07-19T02:54:20.543Z,97264.44
2023-07-19T02:56:48.305Z,97275.06
2023-07-19T02:59:16.034Z,97277.78
2023-07-19T03:01:43.872Z,97276.63
2023-07-19T03:04:13.802Z,97278.00
2023-07-19T03:06:42.839Z,97267.09
2023-07-19T03:09:12.151Z,97278.53
2023-07-19T03:11:39.915Z,97281.91
2023-07-19T03:14:07.641Z,97281.47
2023-07-19T03:16:35.368Z,97290.06
2023-07-19T03:19:03.395Z,97286.81
2023-07-19T03:21:31.090Z,97281.97
2023-07-19T03:24:00.130Z,97286.91
2023-07-19T03:26:28.045Z,97286.03
2023-07-19T03:28:55.766Z,97276.50
2023-07-19T03:31:23.866Z,97278.59
2023-07-19T03:33:51.928Z,97271.84
2023-07-19T03:36:19.863Z,97285.13
2023-07-19T03:38:47.619Z,97283.34
2023-07-19T03:41:16.747Z,97280.47
2023-07-19T03:43:45.018Z,97279.66
2023-07-19T03:46:12.861Z,97264.84
2023-07-19T03:48:40.828Z,97290.84
2023-07-19T03:51:08.618Z,97287.44
2023-07-19T03:53:36.782Z,97291.25
2023-07-19T03:56:04.568Z,97299.53
2023-07-19T03:58:33.911Z,97300.66
2023-07-19T04:01:04.223Z,97290.31
2023-07-19T04:03:32.234Z,97293.88
2023-07-19T04:06:00.210Z,97302.38
2023-07-19T04:08:28.517Z,97304.25
2023-07-19T04:10:56.227Z,97302.78
2023-07-19T04:13:23.915Z,97294.44
2023-07-19T04:15:53.249Z,97309.56
2023-07-19T04:18:20.909Z,97298.69
2023-07-19T04:20:55.912Z,97291.56
2023-07-19T04:23:23.632Z,97304.00
2023-07-19T04:25:51.940Z,97303.41
2023-07-19T04:28:20.915Z,97308.38
2023-07-19T04:30:50.434Z,97299.25
2023-07-19T04:33:21.605Z,97302.81
2023-07-19T04:35:50.603Z,97309.88
2023-07-19T04:38:18.404Z,97307.53
2023-07-19T04:40:46.136Z,97310.38
2023-07-19T04:43:14.249Z,97299.69
2023-07-19T04:45:43.183Z,97291.44
2023-07-19T04:48:11.262Z,97302.63
2023-07-19T04:50:40.417Z,97313.63
2023-07-19T04:53:08.356Z,97319.84
2023-07-19T04:55:36.028Z,97324.16
2023-07-19T04:58:04.273Z,97322.38
2023-07-19T05:00:32.067Z,97337.84
2023-07-19T05:02:59.804Z,97332.16
2023-07-19T05:05:27.899Z,97333.22
2023-07-19T05:07:56.963Z,97334.34
2023-07-19T05:10:24.668Z,97347.38
2023-07-19T05:12:52.411Z,97353.88
2023-07-19T05:15:20.436Z,97392.75
2023-07-19T05:17:48.302Z,97392.88
2023-07-19T05:20:17.248Z,97380.44
2023-07-19T05:22:45.272Z,97391.34
2023-07-19T05:25:14.734Z,97379.00
2023-07-19T05:27:42.504Z,97446.63
2023-07-19T05:30:11.249Z,97469.69
2023-07-19T05:32:39.348Z,97471.06
2023-07-19T05:35:08.542Z,97499.19
2023-07-19T05:37:36.592Z,97476.78
2023-07-19T05:40:06.034Z,97458.44
2023-07-19T05:42:35.336Z,97499.38
2023-07-19T05:45:03.326Z,97491.19
2023-07-19T05:47:31.437Z,97514.66
2023-07-19T05:49:59.338Z,97534.16
2023-07-19T05:52:28.646Z,97529.38
2023-07-19T05:54:56.511Z,97553.84
2023-07-19T05:57:24.764Z,97501.06
2023-07-19T05:59:56.505Z,97509.72
2023-07-19T06:02:39.224Z,97541.41
2023-07-19T06:05:15.874Z,97546.44
2023-07-19T06:07:43.841Z,97537.44
2023-07-19T06:10:11.895Z,97542.56
2023-07-19T06:12:39.642Z,97559.19
2023-07-19T06:15:13.001Z,97561.66
2023-07-19T06:17:42.759Z,97542.28
2023-07-19T06:20:12.631Z,97547.03
2023-07-19T06:22:40.531Z,97531.78
2023-07-19T06:25:09.047Z,97508.44
2023-07-19T06:27:37.010Z,97509.94
2023-07-19T06:30:05.411Z,97530.50
2023-07-19T06:32:34.926Z,97542.41
2023-07-19T06:35:02.768Z,97495.47
2023-07-19T06:37:30.993Z,97496.78
2023-07-19T06:39:58.726Z,97455.91
2023-07-19T06:42:26.617Z,97550.16
2023-07-19T06:44:54.682Z,97539.44
2023-07-19T06:47:22.505Z,97574.50
2023-07-19T06:49:51.970Z,97505.16
2023-07-19T06:52:19.737Z,97494.41
2023-07-19T06:54:47.861Z,97480.88
2023-07-19T06:57:15.678Z,97513.53
2023-07-19T06:59:43.665Z,97513.22
2023-07-19T07:02:11.557Z,97529.56
2023-07-19T07:04:39.273Z,97539.28
2023-07-19T07:07:08.876Z,97526.09
2023-07-19T07:09:37.672Z,97537.47
2023-07-19T07:12:06.759Z,97521.44
2023-07-19T07:14:34.631Z,97504.38
2023-07-19T07:17:02.669Z,97500.59
2023-07-19T07:19:30.745Z,97547.22
2023-07-19T07:21:59.280Z,97496.00
2023-07-19T07:24:28.323Z,97559.88
2023-07-19T07:26:56.314Z,97595.03
2023-07-19T07:29:24.154Z,97586.31
2023-07-19T07:31:53.112Z,97556.44
2023-07-19T07:34:23.165Z,97528.28
2023-07-19T07:36:52.366Z,97502.00
2023-07-19T07:39:20.231Z,97443.75
2023-07-19T07:41:49.278Z,97447.13
2023-07-19T07:44:17.467Z,97435.72
2023-07-19T07:46:45.306Z,97419.63
2023-07-19T07:49:13.535Z,97470.31
2023-07-19T07:51:41.341Z,97532.03
2023-07-19T07:54:09.471Z,97567.00
2023-07-19T07:56:37.252Z,97508.06
2023-07-19T07:59:06.564Z,97505.69
2023-07-19T08:01:34.346Z,97547.88
2023-07-19T08:04:03.609Z,97521.91
2023-07-19T08:06:31.357Z,97532.53
2023-07-19T08:08:59.265Z,97534.78
2023-07-19T08:11:27.894Z,97499.78
2023-07-19T08:13:56.332Z,97512.84
2023-07-19T08:16:25.892Z,97482.28
2023-07-19T08:18:54.083Z,97436.44
2023-07-19T08:21:35.309Z,97468.88
2023-07-19T08:24:05.176Z,97499.72
2023-07-19T08:26:33.238Z,97495.06
2023-07-19T08:29:00.989Z,97498.03
2023-07-19T08:31:30.325Z,97475.19
2023-07-19T08:33:58.216Z,97462.13
2023-07-19T08:36:26.191Z,97505.81
2023-07-19T08:38:54.505Z,97484.88
2023-07-19T08:41:24.312Z,97450.03
2023-07-19T08:43:56.829Z,97379.88
2023-07-19T08:46:24.681Z,97382.31
2023-07-19T08:48:54.232Z,97393.75
2023-07-19T08:51:22.774Z,97382.66
2023-07-19T08:53:51.463Z,97366.53
2023-07-19T08:56:19.700Z,97346.59
2023-07-19T08:58:47.834Z,97370.72
2023-07-19T09:01:15.814Z,97349.56
2023-07-19T09:03:43.937Z,97339.88
2023-07-19T09:06:13.210Z,97366.19
2023-07-19T09:08:42.965Z,97359.72
2023-07-19T09:11:10.935Z,97369.34
2023-07-19T09:13:40.300Z,97397.94
2023-07-19T09:16:08.795Z,97402.47
2023-07-19T09:18:38.735Z,97406.88
2023-07-19T09:21:07.258Z,97429.53
2023-07-19T09:23:40.092Z,97386.28
2023-07-19T09:26:08.630Z,97451.16
2023-07-19T09:28:37.017Z,97453.88
2023-07-19T09:33:37.076Z,97355.28
2023-07-19T09:36:05.252Z,97351.63
2023-07-19T09:38:33.063Z,97394.91
2023-07-19T09:41:02.882Z,97333.13
2023-07-19T09:43:34.068Z,97313.09
2023-07-19T09:46:03.371Z,97345.47
2023-07-19T09:48:31.605Z,97373.13
2023-07-19T09:51:03.970Z,97324.78
2023-07-19T09:53:34.676Z,97344.63
2023-07-19T09:56:05.415Z,97375.16
2023-07-19T09:58:35.826Z,97367.19
2023-07-19T10:01:03.958Z,97378.00
2023-07-19T10:03:31.915Z,97368.44
2023-07-19T10:06:00.714Z,97398.50
2023-07-19T10:08:31.807Z,97383.88
2023-07-19T10:11:02.962Z,97339.72
2023-07-19T10:13:32.383Z,97316.69
2023-07-19T10:16:00.465Z,97322.09
2023-07-19T10:18:31.008Z,97234.75
2023-07-19T10:21:03.597Z,97234.94
2023-07-19T10:23:32.622Z,97208.25
2023-07-19T10:26:07.083Z,97236.91
2023-07-19T10:28:36.800Z,97243.34
2023-07-19T10:31:25.908Z,97254.53
2023-07-19T10:33:56.560Z,97262.19
2023-07-19T10:36:25.940Z,97280.34
2023-07-19T10:38:54.235Z,97239.19
2023-07-19T10:41:22.405Z,97218.25
2023-07-19T10:43:54.703Z,97277.34
2023-07-19T10:46:24.013Z,97273.81
2023-07-19T10:48:53.183Z,97285.06
2023-07-19T10:51:22.097Z,97275.22
2023-07-19T10:53:58.537Z,97256.47
2023-07-19T10:56:28.065Z,97231.91
2023-07-19T10:59:02.077Z,97196.94
2023-07-19T11:01:32.236Z,97209.22
2023-07-19T11:04:04.153Z,97224.41
2023-07-19T11:06:32.412Z,97224.63
2023-07-19T11:09:05.628Z,97221.19
2023-07-19T11:11:37.819Z,97194.53
2023-07-19T11:14:07.595Z,97145.44
2023-07-19T11:16:36.017Z,97149.63
2023-07-19T11:19:04.139Z,97153.81
2023-07-19T11:21:32.494Z,97135.25
2023-07-19T11:24:00.577Z,97127.72
2023-07-19T11:26:28.461Z,97115.88
2023-07-19T11:28:58.689Z,97133.31
2023-07-19T11:31:32.739Z,97150.53
2023-07-19T11:34:07.954Z,97158.88
2023-07-19T11:36:36.253Z,97185.25
2023-07-19T11:39:04.529Z,97168.53
2023-07-19T11:41:33.728Z,97134.63
2023-07-19T11:44:01.908Z,97148.88
2023-07-19T11:46:31.129Z,97152.91
2023-07-19T11:48:59.457Z,97178.50
2023-07-19T11:51:29.076Z,97185.31
2023-07-19T11:53:56.913Z,97174.06
2023-07-19T11:56:27.407Z,97192.19
2023-07-19T11:58:57.421Z,97198.66
2023-07-19T12:01:25.852Z,97202.69
2023-07-19T12:03:55.206Z,97163.03
2023-07-19T12:06:23.378Z,97136.19
2023-07-19T12:08:52.132Z,97123.91
2023-07-19T12:11:20.174Z,97142.91
2023-07-19T12:13:49.011Z,97139.63
2023-07-19T12:16:18.388Z,97150.53
2023-07-19T12:18:46.363Z,97133.84
2023-07-19T12:21:15.712Z,97147.13
2023-07-19T12:23:44.047Z,97158.53
2023-07-19T12:28:58.629Z,97132.78
2023-07-19T12:31:27.120Z,97141.03
2023-07-19T12:33:55.288Z,97121.81
2023-07-19T12:36:25.106Z,97129.63
2023-07-19T12:38:53.120Z,97130.72
2023-07-19T12:41:21.011Z,97135.41
2023-07-19T12:43:49.100Z,97120.53
2023-07-19T12:46:17.358Z,97123.97
2023-07-19T12:48:45.268Z,97126.19
2023-07-19T12:51:13.568Z,97127.41
2023-07-19T12:53:42.827Z,97111.63
2023-07-19T12:56:10.693Z,97107.69
2023-07-19T12:58:39.048Z,97102.31
2023-07-19T13:01:07.098Z,97078.81
2023-07-19T13:03:35.450Z,97086.19
2023-07-19T13:06:03.401Z,97063.97
2023-07-19T13:08:31.394Z,97070.56
2023-07-19T13:11:00.827Z,97071.16
2023-07-19T13:13:29.237Z,97076.81
2023-07-19T13:15:57.104Z,97082.13
2023-07-19T13:18:25.040Z,97081.06
2023-07-19T13:20:54.623Z,97067.19
2023-07-19T13:23:22.796Z,97078.94
2023-07-19T13:25:50.654Z,97074.47
2023-07-19T13:28:20.236Z,97067.00
2023-07-19T13:30:50.089Z,97076.56
2023-07-19T13:33:18.377Z,97070.66
2023-07-19T13:38:18.414Z,97072.66
2023-07-19T13:40:52.205Z,97065.56
2023-07-19T13:43:21.499Z,97076.09
2023-07-19T13:45:49.822Z,97073.84
2023-07-19T13:48:18.372Z,97075.63
2023-07-19T13:50:46.412Z,97083.34
2023-07-19T13:53:14.306Z,97070.13
2023-07-19T13:55:42.563Z,97069.06
2023-07-19T13:58:10.453Z,97073.94
2023-07-19T14:00:39.670Z,97062.06
2023-07-19T14:03:07.985Z,97047.84
2023-07-19T14:05:35.902Z,97048.22
2023-07-19T14:08:04.687Z,97037.69
2023-07-19T14:10:33.379Z,97024.97
2023-07-19T14:13:01.414Z,97009.41
2023-07-19T14:15:29.859Z,97017.22
2023-07-19T14:17:59.626Z,97010.63
2023-07-19T14:20:27.851Z,97012.66
2023-07-19T14:22:55.677Z,97006.53
2023-07-19T14:25:24.218Z,97001.50
2023-07-19T14:27:52.149Z,96992.00
2023-07-19T14:30:20.208Z,96998.56
2023-07-19T14:32:48.448Z,97006.31
2023-07-19T14:35:17.652Z,97009.81
2023-07-19T14:37:45.795Z,97002.16
2023-07-19T14:40:15.733Z,97005.84
2023-07-19T14:42:44.632Z,97000.69
2023-07-19T14:45:12.500Z,96995.16
2023-07-19T14:47:41.557Z,96998.09
2023-07-19T14:50:10.797Z,96994.16
2023-07-19T14:52:43.190Z,96993.03
2023-07-19T14:55:11.881Z,97005.13
2023-07-19T14:57:39.712Z,97000.88
2023-07-19T15:00:13.288Z,96999.78
2023-07-19T15:02:41.852Z,96987.94
2023-07-19T15:05:10.969Z,96976.69
2023-07-19T15:07:44.899Z,96971.56
2023-07-19T15:10:14.693Z,96966.41
2023-07-19T15:12:44.239Z,96962.38
2023-07-19T15:15:13.506Z,96961.22
2023-07-19T15:17:42.488Z,96952.47
2023-07-19T15:20:11.232Z,96946.31
2023-07-19T15:22:42.342Z,96956.31
2023-07-19T15:25:10.610Z,96946.28
2023-07-19T15:27:39.120Z,96948.72
2023-07-19T15:30:08.463Z,96948.13
2023-07-19T15:32:36.420Z,96956.41
2023-07-19T15:35:04.479Z,96966.19
2023-07-19T15:37:32.386Z,96959.44
2023-07-19T15:40:01.450Z,96970.28
2023-07-19T15:42:29.990Z,96971.16
2023-07-19T15:44:57.699Z,96988.75
2023-07-19T15:47:25.570Z,96986.72
2023-07-19T15:49:53.576Z,96993.34
2023-07-19T15:52:21.359Z,97005.13
2023-07-19T15:54:49.104Z,96999.88
2023-07-19T15:57:18.533Z,96989.16
2023-07-19T15:59:46.195Z,96994.31
2023-07-19T16:02:14.808Z,96993.00
2023-07-19T16:04:43.144Z,96993.31
2023-07-19T16:07:14.344Z,96989.47
2023-07-19T16:09:42.402Z,97002.47
2023-07-19T16:12:11.578Z,96987.19
2023-07-19T16:14:41.422Z,96994.09
2023-07-19T16:17:09.264Z,96989.94
2023-07-19T16:19:37.555Z,96994.22
2023-07-19T16:22:05.461Z,96994.25
2023-07-19T16:24:33.252Z,96996.63
2023-07-19T16:27:01.442Z,96990.47
2023-07-19T16:29:29.119Z,96994.63
2023-07-19T16:31:58.184Z,96990.56
2023-07-19T16:34:26.406Z,96989.25
2023-07-19T16:36:54.131Z,96991.53
2023-07-19T16:39:21.833Z,96987.59
2023-07-19T16:41:50.200Z,96999.28
2023-07-19T16:44:18.175Z,96993.50
2023-07-19T16:46:46.137Z,96995.66
2023-07-19T16:49:15.696Z,96987.75
2023-07-19T16:51:43.526Z,96991.63
2023-07-19T16:54:11.227Z,96992.09
2023-07-19T16:56:39.420Z,96992.75
2023-07-19T16:59:07.311Z,96996.84
2023-07-19T17:01:35.246Z,96989.03
2023-07-19T17:04:03.594Z,96998.09
2023-07-19T17:06:32.690Z,96997.53
2023-07-19T17:09:00.389Z,96998.97
2023-07-19T17:11:28.616Z,97005.81
2023-07-19T17:13:56.590Z,97011.03
2023-07-19T17:16:24.373Z,97025.53
2023-07-19T17:19:09.425Z,97022.72
2023-07-19T17:21:45.853Z,97023.97
2023-07-19T17:24:14.176Z,97045.00
2023-07-19T17:26:41.928Z,97066.50
2023-07-19T17:29:09.644Z,97067.84
2023-07-19T17:31:38.056Z,97077.81
2023-07-19T17:34:05.895Z,97072.69
2023-07-19T17:36:33.970Z,97068.41
2023-07-19T17:39:02.498Z,97088.56
2023-07-19T17:41:30.568Z,97100.81
2023-07-19T17:43:58.639Z,97096.00
2023-07-19T17:46:26.418Z,97103.91
2023-07-19T17:48:54.184Z,97103.03
2023-07-19T17:51:22.729Z,97116.47
2023-07-19T17:53:50.754Z,97112.06
2023-07-19T17:56:19.766Z,97118.03
2023-07-19T17:58:48.107Z,97101.81
2023-07-19T18:01:17.104Z,97104.53
2023-07-19T18:03:45.867Z,97102.53
2023-07-19T18:06:13.626Z,97117.56
2023-07-19T18:08:41.305Z,97112.06
2023-07-19T18:11:09.435Z,97115.88
2023-07-19T18:13:38.630Z,97114.69
2023-07-19T18:16:06.930Z,97122.56
2023-07-19T18:18:34.634Z,97116.44
2023-07-19T18:21:02.432Z,97106.16
2023-07-19T18:23:30.615Z,97120.34
2023-07-19T18:25:58.713Z,97121.69
2023-07-19T18:28:26.422Z,97129.25
2023-07-19T18:30:55.542Z,97120.50
2023-07-19T18:33:23.714Z,97123.84
2023-07-19T18:35:51.935Z,97127.81
2023-07-19T18:38:19.561Z,97116.59
2023-07-19T18:40:47.642Z,97116.66
2023-07-19T18:43:15.409Z,97120.88
2023-07-19T18:45:43.159Z,97115.97
2023-07-19T18:48:12.628Z,97115.47
2023-07-19T18:50:40.721Z,97123.25
2023-07-19T18:53:08.466Z,97125.56
2023-07-19T18:55:36.595Z,97137.28
2023-07-19T18:58:04.323Z,97132.13
2023-07-19T19:00:32.095Z,97153.75
2023-07-19T19:03:00.497Z,97149.50
2023-07-19T19:05:29.840Z,97154.06
2023-07-19T19:07:57.748Z,97153.19
2023-07-19T19:10:26.218Z,97143.38
2023-07-19T19:12:53.944Z,97140.78
2023-07-19T19:15:21.743Z,97134.78
2023-07-19T19:17:49.889Z,97139.81
2023-07-19T19:20:18.177Z,97136.06
2023-07-19T19:22:47.811Z,97143.47
2023-07-19T19:25:16.220Z,97141.69
2023-07-19T19:27:44.014Z,97138.59
2023-07-19T19:30:12.354Z,97139.25
2023-07-19T19:32:40.897Z,97133.81
2023-07-19T19:35:09.227Z,97136.78
2023-07-19T19:37:37.262Z,97142.53
2023-07-19T19:40:10.781Z,97144.06
2023-07-19T19:42:39.584Z,97151.81
2023-07-19T19:45:08.960Z,97149.19
2023-07-19T19:47:37.268Z,97143.59
2023-07-19T19:50:05.829Z,97146.28
2023-07-19T19:52:34.227Z,97143.16
2023-07-19T19:55:01.943Z,97142.06
2023-07-19T19:57:32.899Z,97142.13
2023-07-19T20:00:03.027Z,97147.81
2023-07-19T20:02:38.086Z,97154.13
2023-07-19T20:05:06.928Z,97146.31
2023-07-19T20:07:34.692Z,97146.72
2023-07-19T20:10:17.546Z,97148.75
2023-07-19T20:12:48.169Z,97147.84
2023-07-19T20:15:16.375Z,97145.19
2023-07-19T20:17:44.308Z,97148.63
2023-07-19T20:20:22.570Z,97147.28
2023-07-19T20:22:52.311Z,97150.38
2023-07-19T20:25:56.344Z,97143.09
2023-07-19T20:28:09.570Z,97145.75
2023-07-19T20:33:09.045Z,97145.00
2023-07-19T20:43:11.826Z,97155.13
2023-07-19T20:45:39.732Z,97160.16
2023-07-19T20:48:07.648Z,97149.94
2023-07-19T20:50:37.220Z,97148.19
2023-07-19T20:53:04.906Z,97145.16
2023-07-19T20:55:33.551Z,97148.41
2023-07-19T20:58:01.786Z,97145.66
2023-07-19T21:00:30.937Z,97148.88
2023-07-19T21:02:59.293Z,97155.03
2023-07-19T21:05:27.028Z,97163.94
2023-07-19T21:07:54.706Z,97157.03
2023-07-19T21:10:27.422Z,97151.50
2023-07-19T21:12:55.313Z,97171.41
2023-07-19T21:15:23.139Z,97178.19
2023-07-19T21:17:54.841Z,97174.53
2023-07-19T21:20:23.759Z,97181.19
2023-07-19T21:22:52.229Z,97180.03
2023-07-19T21:25:20.438Z,97189.03
2023-07-19T21:27:48.216Z,97180.13
2023-07-19T21:30:16.434Z,97188.91
2023-07-19T21:32:45.075Z,97190.97
2023-07-19T21:35:14.180Z,97190.09
2023-07-19T21:37:42.398Z,97183.47
2023-07-19T21:40:10.767Z,97181.44
2023-07-19T21:42:38.741Z,97178.44
2023-07-19T21:45:07.247Z,97188.69
2023-07-19T21:47:34.992Z,97190.31
2023-07-19T21:50:02.741Z,97193.56
2023-07-19T21:52:32.223Z,97189.72
2023-07-19T21:54:59.865Z,97177.78
2023-07-19T21:57:27.826Z,97188.63
2023-07-19T21:59:56.018Z,97186.59
2023-07-19T22:02:23.778Z,97184.00
2023-07-19T22:04:51.420Z,97181.66
2023-07-19T22:07:19.569Z,97184.19
2023-07-19T22:09:48.617Z,97188.31
2023-07-19T22:12:16.534Z,97186.84
2023-07-19T22:14:50.842Z,97193.22
2023-07-19T22:17:25.283Z,97194.38
2023-07-19T22:19:53.408Z,97203.63
2023-07-19T22:22:21.545Z,97205.13
2023-07-19T22:24:50.621Z,97212.09
2023-07-19T22:27:18.750Z,97214.53
2023-07-19T22:29:46.390Z,97208.16
2023-07-19T22:32:14.441Z,97203.34
2023-07-19T22:34:42.095Z,97201.47
2023-07-19T22:37:10.672Z,97205.69
2023-07-19T22:39:38.303Z,97199.66
2023-07-19T22:42:07.686Z,97209.44
2023-07-19T22:44:35.914Z,97186.13
2023-07-19T22:47:04.849Z,97201.44
2023-07-19T22:49:32.688Z,97198.59
2023-07-19T22:52:00.779Z,97198.47
2023-07-19T22:54:28.525Z,97199.69
2023-07-19T22:56:56.628Z,97204.41
2023-07-19T22:59:25.714Z,97202.22
2023-07-19T23:01:53.454Z,97202.63
2023-07-19T23:04:21.579Z,97210.53
2023-07-19T23:06:49.294Z,97201.78
2023-07-19T23:09:17.018Z,97213.19
2023-07-19T23:11:45.108Z,97208.72
2023-07-19T23:14:12.757Z,97204.69
2023-07-19T23:16:44.681Z,97202.63
2023-07-19T23:19:12.701Z,97205.88
2023-07-19T23:21:40.481Z,97205.19
2023-07-19T23:24:08.774Z,97202.97
2023-07-19T23:26:36.484Z,97200.44
2023-07-19T23:29:06.393Z,97213.94
2023-07-19T23:31:35.619Z,97211.09
2023-07-19T23:34:04.660Z,97220.06
2023-07-19T23:36:32.463Z,97215.28
2023-07-19T23:39:00.939Z,97208.03
2023-07-19T23:41:28.846Z,97221.28
2023-07-19T23:43:56.573Z,97211.78
2023-07-19T23:46:25.163Z,97211.16
2023-07-19T23:48:53.172Z,97208.09
2023-07-19T23:51:22.316Z,97207.28
2023-07-19T23:53:50.420Z,97216.97
2023-07-19T23:56:18.087Z,97204.59
2023-07-19T23:58:45.809Z,97214.91
